Time;durP1;ratioP1;P1;durP2;ratioP2;P2;SDS_P1;SDS_P2;PMS_P1;PMS_P2;Temp;Humidity;BMP_temperature;BMP_pressure;BME280_temperature;BME280_humidity;BME280_pressure;Samples;Min_cycle;Max_cycle;Signal;HPM_P1;HPM_P2
2022/12/14 00:00:50;;;;;;;1.10;0.50;;;-3.20;99.90;;;;;;5014254;28;20836;-72
2022/12/14 00:03:17;;;;;;;1.00;0.40;;;-3.20;99.90;;;;;;5007953;28;20959;-72
2022/12/14 00:05:43;;;;;;;16.27;7.03;;;-3.20;99.90;;;;;;5007570;28;20537;-72
2022/12/14 00:08:10;;;;;;;2.40;1.80;;;-3.20;99.90;;;;;;5005538;28;20777;-72
2022/12/14 00:10:37;;;;;;;18.57;6.73;;;-3.30;99.90;;;;;;5009737;28;20435;-72
2022/12/14 00:13:04;;;;;;;14.10;6.23;;;-3.40;99.90;;;;;;5004901;28;20425;-72
2022/12/14 00:15:29;;;;;;;1.40;0.83;;;-3.40;99.90;;;;;;5014739;28;20414;-72
2022/12/14 00:17:55;;;;;;;15.87;6.50;;;-3.40;99.90;;;;;;4994760;28;20840;-72
2022/12/14 00:20:21;;;;;;;13.30;6.73;;;-3.40;99.90;;;;;;5005545;28;20210;-72
2022/12/14 00:22:47;;;;;;;12.70;6.27;;;-3.40;99.90;;;;;;5014289;28;20219;-72
2022/12/14 00:25:12;;;;;;;14.03;7.53;;;-3.50;99.90;;;;;;4999393;28;20190;-72
2022/12/14 00:27:45;;;;;;;1.30;0.60;;;-3.50;99.90;;;;;;5005971;28;20636;-72
2022/12/14 00:30:13;;;;;;;19.13;7.43;;;-3.50;99.90;;;;;;5002794;28;20229;-72
2022/12/14 00:32:39;;;;;;;1.00;0.40;;;-3.50;99.90;;;;;;5000960;28;20423;-72
2022/12/14 00:35:07;;;;;;;2.53;1.33;;;-3.60;99.90;;;;;;5011948;28;20414;-71
2022/12/14 00:37:33;;;;;;;8.47;4.73;;;-3.50;99.90;;;;;;5014381;28;20434;-72
2022/12/14 00:39:59;;;;;;;1.40;0.50;;;-3.50;99.90;;;;;;5014005;28;20414;-71
2022/12/14 00:42:24;;;;;;;3.73;1.07;;;-3.60;99.90;;;;;;5013889;28;20572;-72
2022/12/14 00:44:50;;;;;;;1.20;0.50;;;-3.50;99.90;;;;;;5013744;28;20210;-71
2022/12/14 00:47:15;;;;;;;2.17;0.67;;;-3.60;99.90;;;;;;5008601;28;20234;-72
2022/12/14 00:49:41;;;;;;;15.30;5.80;;;-3.60;99.90;;;;;;5012577;28;20655;-72
2022/12/14 00:52:06;;;;;;;4.63;4.23;;;-3.60;99.90;;;;;;5012726;28;20230;-72
2022/12/14 00:54:32;;;;;;;1.30;0.77;;;-3.60;99.90;;;;;;5013425;28;20190;-72
2022/12/14 00:56:57;;;;;;;1.10;0.60;;;-3.50;99.90;;;;;;5013286;28;20554;-72
2022/12/14 00:59:23;;;;;;;21.03;9.20;;;-3.60;99.90;;;;;;5013630;28;20198;-72
2022/12/14 01:01:49;;;;;;;23.10;8.40;;;-3.60;99.90;;;;;;5013621;28;20191;-72
2022/12/14 01:04:18;;;;;;;20.43;9.57;;;-3.60;99.90;;;;;;5005765;28;20203;-71
2022/12/14 01:06:45;;;;;;;1.10;0.50;;;-3.60;99.90;;;;;;5014052;28;20652;-72
2022/12/14 01:09:11;;;;;;;5.30;3.20;;;-3.40;99.90;;;;;;5000488;28;20425;-71
2022/12/14 01:11:36;;;;;;;17.63;7.93;;;-3.40;99.90;;;;;;5013473;28;20436;-72
2022/12/14 01:14:02;;;;;;;22.90;8.43;;;-3.30;99.90;;;;;;5013686;28;20191;-71
2022/12/14 01:16:28;;;;;;;2.70;0.80;;;-3.30;99.90;;;;;;5000910;28;20187;-72
2022/12/14 01:18:53;;;;;;;1.73;0.77;;;-3.30;99.90;;;;;;5006729;28;20435;-72
2022/12/14 01:21:21;;;;;;;1.60;0.67;;;-3.30;99.90;;;;;;5006529;28;20598;-72
2022/12/14 01:23:51;;;;;;;1.30;0.73;;;-3.20;99.90;;;;;;5003229;28;20294;-71
2022/12/14 01:26:17;;;;;;;1.00;0.40;;;-3.30;99.90;;;;;;4991228;28;20450;-71
2022/12/14 01:28:44;;;;;;;2.43;0.73;;;-3.30;99.90;;;;;;5009434;28;20507;-72
2022/12/14 01:31:13;;;;;;;1.77;0.87;;;-3.30;99.90;;;;;;5005286;28;20773;-71
2022/12/14 01:33:39;;;;;;;19.63;7.07;;;-3.30;99.90;;;;;;5005562;28;20417;-71
2022/12/14 01:36:07;;;;;;;1.97;0.80;;;-3.30;99.90;;;;;;5012449;28;20426;-71
2022/12/14 01:38:33;;;;;;;2.90;1.43;;;-3.30;99.90;;;;;;5012772;28;20453;-71
2022/12/14 01:40:59;;;;;;;12.67;5.77;;;-3.30;99.90;;;;;;4999742;28;20427;-71
2022/12/14 01:43:43;;;;;;;1.27;0.73;;;-3.40;99.90;;;;;;5012531;28;20202;-71
2022/12/14 01:46:09;;;;;;;1.00;0.40;;;-3.30;99.90;;;;;;4981078;28;20426;-71
2022/12/14 01:48:35;;;;;;;1.00;0.40;;;-3.30;99.90;;;;;;4987425;28;20772;-72
2022/12/14 01:51:01;;;;;;;2.40;0.83;;;-3.30;99.90;;;;;;5005373;28;21210;-71
2022/12/14 01:53:26;;;;;;;1.47;0.70;;;-3.30;99.90;;;;;;5012591;28;20266;-71
2022/12/14 01:55:54;;;;;;;18.73;7.50;;;-3.30;99.90;;;;;;5012692;28;20185;-71
2022/12/14 01:58:25;;;;;;;17.47;8.37;;;-3.30;99.90;;;;;;5012097;28;20608;-71
2022/12/14 02:00:55;;;;;;;18.03;7.93;;;-3.30;99.90;;;;;;5012504;28;20978;-71
2022/12/14 02:03:26;;;;;;;25.90;8.50;;;-3.20;99.90;;;;;;5005809;28;20475;-71
2022/12/14 02:05:57;;;;;;;1.40;0.90;;;-3.30;99.90;;;;;;5009896;28;20442;-71
2022/12/14 02:08:24;;;;;;;13.70;7.87;;;-3.20;99.90;;;;;;5011905;28;20422;-71
2022/12/14 02:10:50;;;;;;;16.70;6.77;;;-3.20;99.90;;;;;;5011664;28;20504;-71
2022/12/14 02:13:22;;;;;;;1.20;0.60;;;-3.20;99.90;;;;;;5011257;28;20460;-71
2022/12/14 02:15:47;;;;;;;1.80;1.13;;;-3.20;99.90;;;;;;5011576;28;20418;-71
2022/12/14 02:18:20;;;;;;;9.10;8.40;;;-3.20;99.90;;;;;;5011427;28;20961;-71
2022/12/14 02:21:01;;;;;;;16.47;8.50;;;-3.20;99.90;;;;;;4988576;28;20179;-71
2022/12/14 02:23:51;;;;;;;15.63;7.17;;;-3.20;99.90;;;;;;4995857;28;20459;-71
2022/12/14 02:26:35;;;;;;;1.90;1.00;;;-3.20;99.90;;;;;;4994318;28;20916;-71
2022/12/14 02:29:45;;;;;;;1.43;0.50;;;-3.20;99.90;;;;;;5005841;28;20414;-71
2022/12/14 02:32:13;;;;;;;17.37;6.90;;;-3.10;99.90;;;;;;4950336;29;20460;-71
2022/12/14 02:34:48;;;;;;;19.63;8.53;;;-3.10;99.90;;;;;;5000108;28;20458;-71
2022/12/14 02:37:16;;;;;;;1.10;0.50;;;-3.10;99.90;;;;;;5011534;28;20425;-71
2022/12/14 02:40:15;;;;;;;18.50;9.10;;;-3.10;99.90;;;;;;5011110;28;20417;-71
2022/12/14 02:43:00;;;;;;;1.10;0.50;;;-3.10;99.90;;;;;;5010199;28;21051;-71
2022/12/14 02:45:32;;;;;;;18.77;8.60;;;-3.10;99.90;;;;;;5011632;28;20433;-71
2022/12/14 02:48:08;;;;;;;1.73;0.60;;;-3.10;99.90;;;;;;5006338;28;20462;-71
2022/12/14 02:50:46;;;;;;;18.80;8.33;;;-3.00;99.90;;;;;;5004190;28;20417;-71
2022/12/14 02:53:20;;;;;;;18.63;9.50;;;-3.00;99.90;;;;;;5002980;28;20422;-71
2022/12/14 02:55:51;;;;;;;1.10;0.50;;;-3.00;99.90;;;;;;5006969;28;20516;-71
2022/12/14 02:58:26;;;;;;;1.10;0.50;;;-3.10;99.90;;;;;;5010458;28;20440;-71
2022/12/14 03:00:54;;;;;;;1.60;0.73;;;-3.10;99.90;;;;;;5011091;28;21069;-71
2022/12/14 03:03:20;;;;;;;1.20;0.60;;;-3.00;99.90;;;;;;5004700;28;20549;-71
2022/12/14 03:06:03;;;;;;;19.00;8.30;;;-2.90;99.90;;;;;;5008892;28;20454;-71
2022/12/14 03:08:31;;;;;;;18.47;7.70;;;-2.90;99.90;;;;;;5010997;28;20329;-71
2022/12/14 03:11:01;;;;;;;22.17;8.53;;;-3.00;99.90;;;;;;5010886;28;20509;-71
2022/12/14 03:13:55;;;;;;;19.33;8.70;;;-2.90;99.90;;;;;;5010239;28;20430;-71
2022/12/14 03:16:27;;;;;;;16.20;7.83;;;-3.00;99.90;;;;;;5002350;28;20426;-71
2022/12/14 03:19:08;;;;;;;1.10;0.40;;;-3.00;99.90;;;;;;5013452;28;20450;-71
2022/12/14 03:21:38;;;;;;;1.60;0.83;;;-3.10;99.90;;;;;;5012459;28;20420;-71
2022/12/14 03:24:09;;;;;;;2.07;0.80;;;-3.00;99.90;;;;;;4996892;28;20906;-71
2022/12/14 03:26:48;;;;;;;19.10;9.00;;;-3.00;99.90;;;;;;4994783;28;20799;-71
2022/12/14 03:29:21;;;;;;;1.20;0.67;;;-3.00;99.90;;;;;;4998116;28;20493;-71
2022/12/14 03:31:57;;;;;;;1.83;1.17;;;-3.00;99.90;;;;;;5003372;28;20446;-71
2022/12/14 03:34:38;;;;;;;1.10;0.57;;;-2.90;99.90;;;;;;5007662;28;20425;-71
2022/12/14 03:37:14;;;;;;;1.87;0.93;;;-2.90;99.90;;;;;;4991278;28;20425;-71
2022/12/14 03:39:42;;;;;;;1.30;0.60;;;-2.90;99.90;;;;;;5014549;28;20508;-71
2022/12/14 03:42:38;;;;;;;1.10;0.40;;;-2.90;99.90;;;;;;5014356;28;20480;-71
2022/12/14 03:45:15;;;;;;;1.10;0.50;;;-2.90;99.90;;;;;;5013686;28;20462;-71
2022/12/14 03:47:50;;;;;;;17.83;8.87;;;-2.90;99.90;;;;;;5014374;28;20418;-71
2022/12/14 03:50:23;;;;;;;2.27;0.83;;;-2.90;99.90;;;;;;5014046;28;20424;-71
2022/12/14 03:52:55;;;;;;;2.07;1.43;;;-2.90;99.90;;;;;;5013865;28;20501;-71
2022/12/14 03:55:42;;;;;;;16.90;8.20;;;-2.90;99.90;;;;;;5014108;28;20899;-71
2022/12/14 03:58:21;;;;;;;1.73;0.90;;;-2.90;99.90;;;;;;4990537;28;20444;-71
2022/12/14 04:01:10;;;;;;;18.33;8.70;;;-2.90;99.90;;;;;;5014297;28;20505;-71
2022/12/14 04:04:02;;;;;;;1.50;0.60;;;-2.90;99.90;;;;;;4976326;28;20986;-71
2022/12/14 04:06:58;;;;;;;1.30;0.60;;;-2.80;99.90;;;;;;5004835;28;20875;-71
2022/12/14 04:09:43;;;;;;;16.00;7.10;;;-2.80;99.90;;;;;;4989543;28;20421;-71
2022/12/14 04:20:56;;;;;;;1.10;0.50;;;-2.80;99.90;;;;;;5014184;28;20405;-71
2022/12/14 04:26:26;;;;;;;1.20;0.60;;;-2.90;99.90;;;;;;4996512;28;20931;-71
2022/12/14 04:31:56;;;;;;;25.23;9.33;;;-2.80;99.90;;;;;;5002354;28;20468;-71
2022/12/14 04:34:25;;;;;;;1.57;0.77;;;-2.80;99.90;;;;;;5006492;28;20429;-71
2022/12/14 04:36:55;;;;;;;1.47;0.93;;;-2.80;99.90;;;;;;4988688;28;20453;-71
2022/12/14 04:39:30;;;;;;;1.33;1.10;;;-2.80;99.90;;;;;;5012829;28;20438;-71
2022/12/14 04:41:59;;;;;;;1.00;0.40;;;-2.80;99.90;;;;;;5013198;28;20437;-71
2022/12/14 04:44:34;;;;;;;1.73;0.60;;;-2.80;99.90;;;;;;5012936;28;20492;-71
2022/12/14 04:47:01;;;;;;;2.40;1.63;;;-2.80;99.90;;;;;;5009749;28;20434;-71
2022/12/14 04:50:12;;;;;;;21.03;10.17;;;-2.80;99.90;;;;;;5010372;28;20414;-71
2022/12/14 04:52:39;;;;;;;1.20;0.70;;;-2.70;99.90;;;;;;4991581;28;20805;-71
2022/12/14 04:55:16;;;;;;;1.00;0.50;;;-2.80;99.90;;;;;;5013250;28;20560;-71
2022/12/14 04:57:55;;;;;;;1.77;1.27;;;-2.70;99.90;;;;;;5011880;28;20520;-71
2022/12/14 05:00:21;;;;;;;15.00;8.40;;;-2.70;99.90;;;;;;5013198;28;20444;-71
2022/12/14 05:03:28;;;;;;;1.20;0.60;;;-2.70;99.90;;;;;;5011288;28;20918;-71
2022/12/14 05:06:03;;;;;;;1.10;0.50;;;-2.70;99.90;;;;;;4981993;28;20213;-72
2022/12/14 05:08:55;;;;;;;1.43;0.60;;;-2.60;99.90;;;;;;5013022;28;20418;-71
2022/12/14 05:11:26;;;;;;;2.03;1.83;;;-2.70;99.90;;;;;;5012938;28;20472;-72
2022/12/14 05:13:52;;;;;;;1.10;0.50;;;-2.70;99.90;;;;;;5012152;28;20450;-71
2022/12/14 05:16:20;;;;;;;18.00;8.80;;;-2.70;99.90;;;;;;5012906;28;20457;-72
2022/12/14 05:18:46;;;;;;;1.67;0.90;;;-2.70;99.90;;;;;;5012113;28;20191;-72
2022/12/14 05:24:01;;;;;;;25.87;9.67;;;-2.70;99.90;;;;;;4993059;28;20206;-71
2022/12/14 05:26:28;;;;;;;1.60;0.87;;;-2.60;99.90;;;;;;4993709;28;20451;-71
2022/12/14 05:28:53;;;;;;;1.10;0.50;;;-2.60;99.90;;;;;;5004104;28;20427;-72
2022/12/14 05:31:19;;;;;;;19.57;8.33;;;-2.60;99.90;;;;;;4997559;28;20434;-71
2022/12/14 05:33:45;;;;;;;18.30;9.13;;;-2.60;99.90;;;;;;5004814;28;20190;-71
2022/12/14 05:36:10;;;;;;;2.90;0.70;;;-2.60;99.90;;;;;;5010793;28;20686;-72
2022/12/14 05:38:36;;;;;;;1.37;0.50;;;-2.60;99.90;;;;;;5011259;28;20203;-71
2022/12/14 05:41:02;;;;;;;1.73;0.77;;;-2.50;99.90;;;;;;5011973;28;20187;-71
2022/12/14 05:43:27;;;;;;;18.43;10.27;;;-2.50;99.90;;;;;;5011746;28;20211;-71
2022/12/14 05:46:01;;;;;;;1.60;0.90;;;-2.50;99.90;;;;;;5012040;28;20190;-72
2022/12/14 05:48:26;;;;;;;2.17;1.90;;;-2.50;99.90;;;;;;5011264;28;20522;-71
2022/12/14 05:50:53;;;;;;;3.03;1.37;;;-2.50;99.90;;;;;;5011244;28;20473;-72
2022/12/14 05:53:19;;;;;;;1.10;0.40;;;-2.50;99.90;;;;;;5011739;28;20464;-71
2022/12/14 05:55:48;;;;;;;4.17;2.67;;;-2.50;99.90;;;;;;5012106;28;20280;-72
2022/12/14 05:58:14;;;;;;;21.73;9.50;;;-2.60;99.90;;;;;;5011156;28;20698;-71
2022/12/14 06:00:39;;;;;;;27.47;10.80;;;-2.50;99.90;;;;;;4999588;28;20436;-72
2022/12/14 06:03:05;;;;;;;24.90;10.23;;;-2.50;99.90;;;;;;5007462;28;20222;-72
2022/12/14 06:05:31;;;;;;;1.40;0.93;;;-2.50;99.90;;;;;;5007521;28;20237;-71
2022/12/14 06:07:56;;;;;;;1.10;0.60;;;-2.50;99.90;;;;;;5011697;28;20258;-71
2022/12/14 06:10:22;;;;;;;23.73;11.80;;;-2.50;99.90;;;;;;5011615;28;20188;-71
2022/12/14 06:12:48;;;;;;;1.10;0.60;;;-2.40;99.90;;;;;;5011467;28;20198;-72
2022/12/14 06:15:14;;;;;;;21.70;9.90;;;-2.40;99.90;;;;;;5011567;28;20221;-72
2022/12/14 06:17:44;;;;;;;20.60;9.70;;;-2.40;99.90;;;;;;5011421;28;20195;-72
2022/12/14 06:20:10;;;;;;;18.67;10.00;;;-2.40;99.90;;;;;;5009677;28;20683;-72
2022/12/14 06:22:36;;;;;;;20.60;9.20;;;-2.40;99.90;;;;;;5005117;28;20515;-72
2022/12/14 06:25:02;;;;;;;1.67;0.87;;;-2.50;99.90;;;;;;4993034;28;20470;-72
2022/12/14 06:27:28;;;;;;;21.03;10.67;;;-2.40;99.90;;;;;;5001404;28;20225;-72
2022/12/14 06:29:54;;;;;;;20.67;10.40;;;-2.40;99.90;;;;;;5001448;28;20826;-72
2022/12/14 06:32:19;;;;;;;3.20;0.87;;;-2.40;99.90;;;;;;4990603;28;20296;-72
2022/12/14 06:34:45;;;;;;;1.43;0.70;;;-2.40;99.90;;;;;;5007011;28;20203;-72
2022/12/14 06:37:12;;;;;;;1.37;0.67;;;-2.40;99.90;;;;;;5011625;28;20710;-72
2022/12/14 06:39:37;;;;;;;1.30;0.50;;;-2.40;99.90;;;;;;5011214;28;20437;-72
2022/12/14 06:42:03;;;;;;;1.50;0.83;;;-2.30;99.90;;;;;;5001792;28;20430;-72
2022/12/14 06:44:29;;;;;;;1.10;0.50;;;-2.30;99.90;;;;;;5007700;28;20252;-72
2022/12/14 06:46:55;;;;;;;1.73;0.60;;;-2.30;99.90;;;;;;5008109;28;20509;-72
2022/12/14 06:49:21;;;;;;;25.40;11.77;;;-2.30;99.90;;;;;;5006019;28;20593;-72
2022/12/14 06:51:47;;;;;;;25.87;12.70;;;-2.30;99.90;;;;;;5008780;28;20184;-72
2022/12/14 06:54:14;;;;;;;1.97;1.43;;;-2.40;99.90;;;;;;5010724;28;20425;-72
2022/12/14 06:56:41;;;;;;;27.40;11.73;;;-2.30;99.90;;;;;;5011154;28;21074;-72
2022/12/14 06:59:07;;;;;;;20.40;11.60;;;-2.40;99.90;;;;;;5009231;28;20432;-72
2022/12/14 07:01:34;;;;;;;27.90;12.20;;;-2.30;99.90;;;;;;5011014;28;20471;-72
2022/12/14 07:04:00;;;;;;;18.83;9.87;;;-2.30;99.90;;;;;;5003826;28;20552;-72
2022/12/14 07:06:30;;;;;;;20.00;10.67;;;-2.30;99.90;;;;;;5010960;28;20827;-73
2022/12/14 07:08:56;;;;;;;2.17;1.07;;;-2.30;99.90;;;;;;5010804;28;20187;-72
2022/12/14 07:11:23;;;;;;;1.10;0.67;;;-2.40;99.90;;;;;;4999328;28;20419;-72
2022/12/14 07:13:48;;;;;;;20.07;10.80;;;-2.40;99.90;;;;;;5008711;28;20900;-72
2022/12/14 07:16:17;;;;;;;1.63;0.80;;;-2.40;99.90;;;;;;5010847;28;20419;-72
2022/12/14 07:18:43;;;;;;;1.20;0.60;;;-2.30;99.90;;;;;;5010473;28;20179;-72
2022/12/14 07:21:11;;;;;;;23.10;11.43;;;-2.30;99.90;;;;;;5009253;28;20418;-72
2022/12/14 07:23:38;;;;;;;2.60;1.53;;;-2.30;99.90;;;;;;4990973;28;20203;-72
2022/12/14 07:26:10;;;;;;;1.93;1.17;;;-2.30;99.90;;;;;;4993845;28;20448;-72
2022/12/14 07:28:36;;;;;;;23.73;10.53;;;-2.20;99.90;;;;;;4991130;28;20439;-72
2022/12/14 07:31:04;;;;;;;1.30;0.70;;;-2.20;99.90;;;;;;4993784;28;20430;-72
2022/12/14 07:33:29;;;;;;;1.30;0.60;;;-2.30;99.90;;;;;;5003212;28;20516;-72
2022/12/14 07:36:06;;;;;;;27.57;13.17;;;-2.20;99.90;;;;;;5010863;28;20842;-72
2022/12/14 07:38:32;;;;;;;1.73;0.90;;;-2.20;99.90;;;;;;4985359;28;20285;-72
2022/12/14 07:41:08;;;;;;;1.20;0.53;;;-2.20;99.90;;;;;;5010261;28;20418;-72
2022/12/14 07:43:34;;;;;;;34.23;12.00;;;-2.20;99.90;;;;;;5009946;28;20519;-72
2022/12/14 07:46:09;;;;;;;2.40;1.27;;;-2.10;99.90;;;;;;5010437;28;20906;-72
2022/12/14 07:48:36;;;;;;;27.13;12.00;;;-2.10;99.90;;;;;;5010114;28;20183;-72
2022/12/14 07:51:08;;;;;;;26.57;14.13;;;-2.10;99.90;;;;;;5010472;28;20434;-71
2022/12/14 07:53:35;;;;;;;1.60;1.37;;;-2.10;99.90;;;;;;5010200;28;21034;-70
2022/12/14 07:56:03;;;;;;;21.63;11.27;;;-2.00;99.90;;;;;;4997264;28;20521;-70
2022/12/14 07:58:29;;;;;;;29.80;12.10;;;-2.00;99.90;;;;;;4997929;28;20425;-70
2022/12/14 08:00:55;;;;;;;23.70;12.07;;;-2.00;99.90;;;;;;5010478;28;20783;-70
2022/12/14 08:03:20;;;;;;;30.27;14.17;;;-2.10;99.90;;;;;;5007692;28;20466;-71
2022/12/14 08:05:46;;;;;;;26.60;10.63;;;-2.10;99.90;;;;;;5012196;28;20186;-70
2022/12/14 08:08:11;;;;;;;1.53;0.83;;;-2.10;99.90;;;;;;5014305;28;20686;-70
2022/12/14 08:10:37;;;;;;;1.73;0.60;;;-2.00;99.90;;;;;;5013927;28;20195;-70
2022/12/14 08:13:02;;;;;;;1.10;0.60;;;-2.00;99.90;;;;;;5013828;28;20183;-70
2022/12/14 08:15:28;;;;;;;1.17;0.60;;;-2.00;99.90;;;;;;5014066;28;20183;-70
2022/12/14 08:17:54;;;;;;;2.20;0.80;;;-2.00;99.90;;;;;;5013812;28;20253;-70
2022/12/14 08:20:19;;;;;;;24.30;12.53;;;-1.90;99.90;;;;;;5011948;28;20209;-70
2022/12/14 08:22:45;;;;;;;2.20;0.90;;;-1.90;99.90;;;;;;5006544;28;20196;-70
2022/12/14 08:25:10;;;;;;;1.73;0.90;;;-1.80;99.90;;;;;;4996191;28;20691;-71
2022/12/14 08:27:36;;;;;;;26.20;13.10;;;-1.80;99.90;;;;;;5004419;28;20179;-70
2022/12/14 08:30:02;;;;;;;28.73;12.50;;;-1.80;99.90;;;;;;5003284;28;20187;-70
2022/12/14 08:32:27;;;;;;;2.17;0.70;;;-1.80;99.90;;;;;;5000079;28;20199;-70
2022/12/14 08:34:53;;;;;;;26.50;13.80;;;-1.80;99.90;;;;;;5010012;28;20434;-70
2022/12/14 08:37:19;;;;;;;30.70;13.17;;;-1.80;99.90;;;;;;5003260;28;20198;-70
2022/12/14 08:39:44;;;;;;;3.20;1.47;;;-1.90;99.90;;;;;;5010591;28;20221;-71
2022/12/14 08:42:10;;;;;;;14.77;2.00;;;-1.80;99.90;;;;;;5013082;28;20187;-70
2022/12/14 08:44:35;;;;;;;28.27;13.20;;;-1.70;99.90;;;;;;5013106;28;20687;-70
2022/12/14 08:47:01;;;;;;;2.23;0.87;;;-1.70;99.90;;;;;;5013096;28;20629;-70
2022/12/14 08:49:27;;;;;;;31.87;14.67;;;-1.60;99.90;;;;;;5012985;28;20226;-70
2022/12/14 08:51:52;;;;;;;32.47;15.57;;;-1.60;99.90;;;;;;5012568;28;20191;-70
2022/12/14 08:54:18;;;;;;;1.37;0.70;;;-1.50;99.90;;;;;;5013018;28;20223;-70
2022/12/14 08:56:44;;;;;;;3.77;0.80;;;-1.50;99.90;;;;;;5013550;28;20187;-70
2022/12/14 08:59:10;;;;;;;27.07;13.67;;;-1.40;99.90;;;;;;5011838;28;20620;-69
2022/12/14 09:01:35;;;;;;;13.90;3.13;;;-1.30;99.90;;;;;;5012984;28;20433;-69
2022/12/14 09:04:03;;;;;;;33.73;14.33;;;-1.30;99.90;;;;;;5005093;28;20242;-69
2022/12/14 09:06:29;;;;;;;20.33;12.30;;;-1.30;99.90;;;;;;5012736;28;20179;-70
2022/12/14 09:08:56;;;;;;;5.60;1.33;;;-1.30;99.90;;;;;;5012825;28;20960;-69
2022/12/14 09:11:22;;;;;;;1.30;0.70;;;-1.30;99.90;;;;;;5012472;28;21002;-69
2022/12/14 09:13:48;;;;;;;34.17;16.07;;;-1.20;99.90;;;;;;4999180;28;20525;-69
2022/12/14 09:16:16;;;;;;;24.37;13.00;;;-1.20;99.90;;;;;;5012936;28;20545;-69
2022/12/14 09:18:42;;;;;;;27.67;14.70;;;-1.20;99.90;;;;;;5012249;28;20815;-70
2022/12/14 09:21:08;;;;;;;37.77;16.60;;;-1.10;99.90;;;;;;5012463;28;20426;-70
2022/12/14 09:23:35;;;;;;;29.27;13.70;;;-1.00;99.90;;;;;;4998278;28;20489;-70
2022/12/14 09:26:06;;;;;;;41.07;15.00;;;-1.00;99.90;;;;;;5003788;28;20237;-69
2022/12/14 09:28:35;;;;;;;31.73;15.40;;;-0.90;99.90;;;;;;4998826;28;20443;-68
2022/12/14 09:31:05;;;;;;;25.10;12.27;;;-0.90;99.90;;;;;;4995521;28;20427;-68
2022/12/14 09:33:31;;;;;;;25.63;11.40;;;-0.90;99.90;;;;;;4994963;28;20443;-68
2022/12/14 09:36:10;;;;;;;26.27;12.40;;;-0.90;99.90;;;;;;4983025;28;20444;-68
2022/12/14 09:38:37;;;;;;;1.10;0.60;;;-0.80;99.90;;;;;;4986629;28;20446;-68
2022/12/14 09:41:05;;;;;;;28.97;14.73;;;-0.80;99.90;;;;;;4990014;28;20881;-68
2022/12/14 09:43:37;;;;;;;28.60;13.60;;;-0.80;99.90;;;;;;4983334;28;20499;-68
2022/12/14 09:46:25;;;;;;;25.20;12.80;;;-0.80;99.90;;;;;;5005050;28;20514;-68
2022/12/14 09:48:52;;;;;;;24.13;13.50;;;-0.70;99.90;;;;;;5011946;28;20480;-68
2022/12/14 09:51:20;;;;;;;25.07;12.10;;;-0.60;99.90;;;;;;5011830;28;20501;-68
2022/12/14 09:53:49;;;;;;;28.90;14.07;;;-0.60;99.90;;;;;;5006934;28;20457;-68
2022/12/14 09:56:18;;;;;;;27.10;13.60;;;-0.60;99.90;;;;;;5012195;28;20476;-68
2022/12/14 09:58:53;;;;;;;29.47;13.07;;;-0.50;99.90;;;;;;5010959;28;20468;-68
2022/12/14 10:01:21;;;;;;;21.57;12.60;;;-0.50;99.90;;;;;;4987487;28;21134;-67
2022/12/14 10:04:04;;;;;;;29.07;15.90;;;-0.50;99.90;;;;;;4997362;28;20481;-67
2022/12/14 10:06:40;;;;;;;31.67;15.47;;;-0.40;99.90;;;;;;4999386;28;20430;-67
2022/12/14 10:09:18;;;;;;;27.30;15.00;;;-0.40;99.90;;;;;;5009510;28;20427;-67
2022/12/14 10:12:06;;;;;;;32.07;14.40;;;-0.30;99.90;;;;;;5009606;28;20476;-67
2022/12/14 10:15:05;;;;;;;34.47;15.37;;;-0.30;99.90;;;;;;5010500;28;20533;-67
2022/12/14 10:17:42;;;;;;;31.27;14.23;;;-0.20;99.90;;;;;;4985025;28;20665;-67
2022/12/14 10:20:39;;;;;;;35.10;17.07;;;-0.20;99.90;;;;;;5000438;28;20418;-67
2022/12/14 10:23:11;;;;;;;18.30;2.97;;;-0.20;99.90;;;;;;4999595;28;20421;-68
2022/12/14 10:25:38;;;;;;;35.93;15.33;;;-0.20;99.90;;;;;;4992522;28;20429;-71
2022/12/14 10:28:15;;;;;;;34.40;15.40;;;-0.20;99.90;;;;;;4993010;28;20423;-68
2022/12/14 10:30:41;;;;;;;30.60;14.97;;;-0.20;99.90;;;;;;4994081;28;20415;-68
2022/12/14 10:33:21;;;;;;;33.67;15.57;;;-0.10;99.90;;;;;;4986815;28;20526;-68
2022/12/14 10:35:49;;;;;;;38.53;19.13;;;-0.10;99.90;;;;;;4984738;28;20435;-68
2022/12/14 10:38:53;;;;;;;40.43;17.37;;;-0.10;99.90;;;;;;4995248;28;20457;-67
2022/12/14 10:41:42;;;;;;;35.63;16.57;;;0.00;99.90;;;;;;4993068;28;20508;-68
2022/12/14 10:44:20;;;;;;;32.37;16.77;;;0.10;99.90;;;;;;4984498;28;21098;-68
2022/12/14 10:47:05;;;;;;;33.07;16.33;;;0.10;99.90;;;;;;4993873;28;20410;-68
2022/12/14 10:49:35;;;;;;;39.47;16.43;;;0.10;99.90;;;;;;4999036;28;20430;-68
2022/12/14 10:52:15;;;;;;;36.73;17.33;;;0.10;99.90;;;;;;4994149;28;20436;-68
2022/12/14 10:55:00;;;;;;;37.57;16.70;;;0.10;99.90;;;;;;4989052;28;20800;-69
2022/12/14 10:57:27;;;;;;;44.37;16.90;;;0.10;99.90;;;;;;4991196;28;20449;-68
2022/12/14 10:59:54;;;;;;;2.37;1.80;;;0.20;99.90;;;;;;4998342;28;20418;-68
2022/12/14 11:02:40;;;;;;;35.17;16.97;;;0.20;99.90;;;;;;4992951;28;20456;-68
2022/12/14 11:05:26;;;;;;;27.43;16.17;;;0.20;99.90;;;;;;5005449;28;20454;-68
2022/12/14 11:07:52;;;;;;;35.10;15.70;;;0.20;99.90;;;;;;4991606;28;20443;-68
2022/12/14 11:10:28;;;;;;;34.73;14.87;;;0.20;99.90;;;;;;4988586;28;20439;-68
2022/12/14 11:12:59;;;;;;;28.97;14.67;;;0.20;99.90;;;;;;4990439;28;20202;-69
2022/12/14 11:15:30;;;;;;;42.53;18.50;;;0.20;99.90;;;;;;4998701;28;20470;-69
2022/12/14 11:18:19;;;;;;;5.33;1.40;;;0.20;99.90;;;;;;4994608;28;20457;-68
2022/12/14 11:21:03;;;;;;;34.70;16.90;;;0.20;99.90;;;;;;4979084;28;20510;-68
2022/12/14 11:23:38;;;;;;;42.67;19.53;;;0.20;99.90;;;;;;4983042;28;20481;-68
2022/12/14 11:26:12;;;;;;;35.77;17.67;;;0.10;99.90;;;;;;4995544;28;20475;-68
2022/12/14 11:28:52;;;;;;;36.53;17.67;;;0.20;99.90;;;;;;5005172;28;20410;-68
2022/12/14 11:31:29;;;;;;;38.80;16.73;;;0.20;99.90;;;;;;4986656;28;20446;-68
2022/12/14 11:33:56;;;;;;;34.17;15.07;;;0.10;99.90;;;;;;4991798;28;20421;-69
2022/12/14 11:36:40;;;;;;;33.77;16.90;;;0.10;99.90;;;;;;4984908;28;20458;-69
2022/12/14 11:39:12;;;;;;;33.70;16.50;;;0.10;99.90;;;;;;4994169;28;20491;-68
2022/12/14 11:41:43;;;;;;;47.33;19.37;;;0.10;99.90;;;;;;4988156;28;20448;-68
2022/12/14 11:44:14;;;;;;;46.07;19.57;;;0.10;99.90;;;;;;4991916;28;20485;-68
2022/12/14 11:46:44;;;;;;;56.63;17.50;;;0.10;99.90;;;;;;4995615;28;20445;-68
2022/12/14 11:49:37;;;;;;;38.97;19.23;;;0.20;99.90;;;;;;4990921;28;20423;-68
2022/12/14 11:52:08;;;;;;;34.80;15.77;;;0.20;99.90;;;;;;4986221;28;20526;-68
2022/12/14 11:54:36;;;;;;;39.77;17.07;;;0.30;99.90;;;;;;4986748;28;20438;-68
2022/12/14 11:57:12;;;;;;;34.70;18.30;;;0.30;99.90;;;;;;4989361;28;20431;-68
2022/12/14 11:59:49;;;;;;;35.60;16.20;;;0.40;99.90;;;;;;4982324;28;20450;-68
2022/12/14 12:02:25;;;;;;;31.80;16.63;;;0.40;99.90;;;;;;4994644;28;20509;-68
2022/12/14 12:05:11;;;;;;;43.47;20.53;;;0.50;99.90;;;;;;4985034;28;20463;-68
2022/12/14 12:07:43;;;;;;;37.50;16.10;;;0.60;99.90;;;;;;4986344;28;20441;-69
2022/12/14 12:10:14;;;;;;;38.40;18.23;;;0.70;99.90;;;;;;4991377;28;20442;-68
2022/12/14 12:12:47;;;;;;;44.43;18.37;;;0.80;99.90;;;;;;4997226;28;20419;-69
2022/12/14 12:15:20;;;;;;;40.97;18.13;;;0.90;99.90;;;;;;5000879;28;20443;-68
2022/12/14 12:17:49;;;;;;;39.57;19.27;;;1.00;99.90;;;;;;4998008;28;20533;-68
2022/12/14 12:20:36;;;;;;;34.00;18.60;;;0.90;99.90;;;;;;4992827;28;20431;-68
2022/12/14 12:23:16;;;;;;;39.83;18.87;;;0.80;99.90;;;;;;4989927;28;20520;-68
2022/12/14 12:25:42;;;;;;;35.80;18.63;;;0.80;99.90;;;;;;4999426;28;20513;-68
2022/12/14 12:28:17;;;;;;;50.87;18.17;;;0.80;99.90;;;;;;4990981;28;20486;-68
2022/12/14 12:30:48;;;;;;;50.07;21.47;;;0.80;99.90;;;;;;4999126;28;20840;-67
2022/12/14 12:33:26;;;;;;;37.57;18.30;;;0.80;99.90;;;;;;4986315;28;20525;-68
2022/12/14 12:35:55;;;;;;;58.07;26.67;;;0.80;99.90;;;;;;4987351;28;20434;-68
2022/12/14 12:38:26;;;;;;;41.00;22.87;;;0.80;99.90;;;;;;4994500;28;20967;-67
2022/12/14 12:40:59;;;;;;;51.93;22.60;;;0.80;99.90;;;;;;4997360;28;20473;-68
2022/12/14 12:43:36;;;;;;;46.10;19.80;;;0.80;99.90;;;;;;4985477;28;20463;-67
2022/12/14 12:46:13;;;;;;;32.30;17.00;;;0.90;99.90;;;;;;4990306;28;20450;-67
2022/12/14 12:48:42;;;;;;;40.63;18.03;;;0.90;99.90;;;;;;4991502;28;20446;-67
2022/12/14 12:51:21;;;;;;;35.70;16.20;;;0.80;99.90;;;;;;4991659;28;20486;-67
2022/12/14 12:54:03;;;;;;;44.67;18.70;;;0.80;99.90;;;;;;4992377;28;20439;-67
2022/12/14 12:56:34;;;;;;;44.83;17.33;;;0.80;99.90;;;;;;4984892;28;20438;-67
2022/12/14 12:59:02;;;;;;;35.53;19.43;;;0.80;99.90;;;;;;4998812;28;20444;-68
2022/12/14 13:01:37;;;;;;;43.03;19.70;;;0.80;99.90;;;;;;4999202;28;20477;-68
2022/12/14 13:04:09;;;;;;;37.10;18.90;;;0.80;99.90;;;;;;4992206;28;20494;-67
2022/12/14 13:06:57;;;;;;;39.50;15.90;;;0.80;99.90;;;;;;4993003;28;20421;-67
2022/12/14 13:09:40;;;;;;;37.17;15.93;;;0.80;99.90;;;;;;4997429;28;20441;-67
2022/12/14 13:12:24;;;;;;;32.10;14.70;;;0.80;99.90;;;;;;4993390;28;20974;-67
2022/12/14 13:14:53;;;;;;;34.03;14.63;;;0.80;99.90;;;;;;4990303;28;20489;-67
2022/12/14 13:17:45;;;;;;;34.00;15.83;;;0.70;99.90;;;;;;4999089;28;20426;-67